sensor_id;sensor_type;location;lat;lon;timestamp;P1;durP1;ratioP1;P2;durP2;ratioP2
34134;SDS011;20410;55.578;12.968;2024-01-15T00:01:26;9.47;;;3.37;;
34134;SDS011;20410;55.578;12.968;2024-01-15T00:03:52;10.23;;;3.53;;
34134;SDS011;20410;55.578;12.968;2024-01-15T00:06:17;11.63;;;3.07;;
34134;SDS011;20410;55.578;12.968;2024-01-15T00:08:43;11.20;;;3.10;;
34134;SDS011;20410;55.578;12.968;2024-01-15T00:11:08;9.93;;;3.67;;
34134;SDS011;20410;55.578;12.968;2024-01-15T00:13:34;13.97;;;3.10;;
34134;SDS011;20410;55.578;12.968;2024-01-15T00:15:59;11.07;;;3.07;;
34134;SDS011;20410;55.578;12.968;2024-01-15T00:18:25;12.83;;;3.60;;
34134;SDS011;20410;55.578;12.968;2024-01-15T00:20:50;9.33;;;3.20;;
34134;SDS011;20410;55.578;12.968;2024-01-15T00:23:16;10.10;;;3.80;;
34134;SDS011;20410;55.578;12.968;2024-01-15T00:25:42;9.93;;;2.97;;
34134;SDS011;20410;55.578;12.968;2024-01-15T00:28:08;10.50;;;3.20;;
34134;SDS011;20410;55.578;12.968;2024-01-15T00:30:33;12.67;;;4.30;;
34134;SDS011;20410;55.578;12.968;2024-01-15T00:32:59;12.23;;;3.27;;
34134;SDS011;20410;55.578;12.968;2024-01-15T00:35:24;10.37;;;3.50;;
34134;SDS011;20410;55.578;12.968;2024-01-15T00:37:50;8.80;;;3.50;;
34134;SDS011;20410;55.578;12.968;2024-01-15T00:40:15;8.57;;;3.17;;
34134;SDS011;20410;55.578;12.968;2024-01-15T00:42:41;12.70;;;3.57;;
34134;SDS011;20410;55.578;12.968;2024-01-15T00:45:06;17.63;;;4.20;;
34134;SDS011;20410;55.578;12.968;2024-01-15T00:47:33;14.30;;;4.10;;
34134;SDS011;20410;55.578;12.968;2024-01-15T00:49:59;13.67;;;2.97;;
34134;SDS011;20410;55.578;12.968;2024-01-15T00:52:25;11.87;;;3.57;;
34134;SDS011;20410;55.578;12.968;2024-01-15T00:54:51;11.67;;;2.90;;
34134;SDS011;20410;55.578;12.968;2024-01-15T00:57:16;11.70;;;3.30;;
34134;SDS011;20410;55.578;12.968;2024-01-15T00:59:44;17.07;;;4.17;;
34134;SDS011;20410;55.578;12.968;2024-01-15T01:02:09;12.47;;;3.97;;
34134;SDS011;20410;55.578;12.968;2024-01-15T01:04:35;12.13;;;3.90;;
34134;SDS011;20410;55.578;12.968;2024-01-15T01:07:00;12.83;;;3.80;;
34134;SDS011;20410;55.578;12.968;2024-01-15T01:09:26;12.10;;;3.67;;
34134;SDS011;20410;55.578;12.968;2024-01-15T01:11:54;15.33;;;3.80;;
34134;SDS011;20410;55.578;12.968;2024-01-15T01:14:20;10.50;;;3.63;;
34134;SDS011;20410;55.578;12.968;2024-01-15T01:16:46;16.60;;;3.43;;
34134;SDS011;20410;55.578;12.968;2024-01-15T01:19:11;13.87;;;3.10;;
34134;SDS011;20410;55.578;12.968;2024-01-15T01:21:37;17.23;;;3.80;;
34134;SDS011;20410;55.578;12.968;2024-01-15T01:24:02;11.93;;;3.70;;
34134;SDS011;20410;55.578;12.968;2024-01-15T01:26:28;11.93;;;3.67;;
34134;SDS011;20410;55.578;12.968;2024-01-15T01:28:54;12.07;;;3.97;;
34134;SDS011;20410;55.578;12.968;2024-01-15T01:31:19;9.53;;;2.97;;
34134;SDS011;20410;55.578;12.968;2024-01-15T01:33:45;8.37;;;3.40;;
34134;SDS011;20410;55.578;12.968;2024-01-15T01:36:10;11.17;;;3.70;;
34134;SDS011;20410;55.578;12.968;2024-01-15T01:38:36;14.20;;;3.20;;
34134;SDS011;20410;55.578;12.968;2024-01-15T01:41:02;11.43;;;3.60;;
34134;SDS011;20410;55.578;12.968;2024-01-15T01:43:28;14.30;;;4.00;;
34134;SDS011;20410;55.578;12.968;2024-01-15T01:45:54;10.47;;;2.87;;
34134;SDS011;20410;55.578;12.968;2024-01-15T01:48:23;16.30;;;3.30;;
34134;SDS011;20410;55.578;12.968;2024-01-15T01:50:50;12.37;;;3.57;;
34134;SDS011;20410;55.578;12.968;2024-01-15T01:53:22;11.30;;;3.43;;
34134;SDS011;20410;55.578;12.968;2024-01-15T01:55:48;12.43;;;3.33;;
34134;SDS011;20410;55.578;12.968;2024-01-15T01:58:14;16.67;;;3.77;;
34134;SDS011;20410;55.578;12.968;2024-01-15T02:00:40;11.43;;;3.20;;
34134;SDS011;20410;55.578;12.968;2024-01-15T02:03:06;16.73;;;3.37;;
34134;SDS011;20410;55.578;12.968;2024-01-15T02:05:32;10.13;;;3.20;;
34134;SDS011;20410;55.578;12.968;2024-01-15T02:07:58;8.83;;;3.37;;
34134;SDS011;20410;55.578;12.968;2024-01-15T02:10:24;8.30;;;2.80;;
34134;SDS011;20410;55.578;12.968;2024-01-15T02:12:49;9.93;;;2.87;;
34134;SDS011;20410;55.578;12.968;2024-01-15T02:15:15;6.70;;;3.00;;
34134;SDS011;20410;55.578;12.968;2024-01-15T02:20:27;9.23;;;2.67;;
34134;SDS011;20410;55.578;12.968;2024-01-15T02:22:52;11.03;;;3.20;;
34134;SDS011;20410;55.578;12.968;2024-01-15T02:25:18;6.43;;;2.67;;
34134;SDS011;20410;55.578;12.968;2024-01-15T02:27:44;9.10;;;2.63;;
34134;SDS011;20410;55.578;12.968;2024-01-15T02:30:11;9.53;;;2.80;;
34134;SDS011;20410;55.578;12.968;2024-01-15T02:32:37;9.40;;;2.60;;
34134;SDS011;20410;55.578;12.968;2024-01-15T02:35:03;9.07;;;2.97;;
34134;SDS011;20410;55.578;12.968;2024-01-15T02:37:29;4.70;;;2.40;;
34134;SDS011;20410;55.578;12.968;2024-01-15T02:39:54;6.07;;;2.40;;
34134;SDS011;20410;55.578;12.968;2024-01-15T02:42:20;6.87;;;2.73;;
34134;SDS011;20410;55.578;12.968;2024-01-15T02:44:45;5.77;;;2.37;;
34134;SDS011;20410;55.578;12.968;2024-01-15T02:47:11;4.80;;;2.33;;
34134;SDS011;20410;55.578;12.968;2024-01-15T02:49:36;5.27;;;2.17;;
34134;SDS011;20410;55.578;12.968;2024-01-15T02:52:02;7.80;;;2.27;;
34134;SDS011;20410;55.578;12.968;2024-01-15T02:54:28;4.17;;;2.47;;
34134;SDS011;20410;55.578;12.968;2024-01-15T02:56:53;4.03;;;2.50;;
34134;SDS011;20410;55.578;12.968;2024-01-15T02:59:19;3.40;;;2.17;;
34134;SDS011;20410;55.578;12.968;2024-01-15T03:01:44;6.77;;;2.63;;
34134;SDS011;20410;55.578;12.968;2024-01-15T03:04:10;6.10;;;2.37;;
34134;SDS011;20410;55.578;12.968;2024-01-15T03:06:35;4.87;;;2.40;;
34134;SDS011;20410;55.578;12.968;2024-01-15T03:09:01;6.97;;;2.50;;
34134;SDS011;20410;55.578;12.968;2024-01-15T03:11:27;6.97;;;2.50;;
34134;SDS011;20410;55.578;12.968;2024-01-15T03:13:53;3.10;;;2.50;;
34134;SDS011;20410;55.578;12.968;2024-01-15T03:16:19;2.37;;;1.87;;
34134;SDS011;20410;55.578;12.968;2024-01-15T03:18:45;4.23;;;2.57;;
34134;SDS011;20410;55.578;12.968;2024-01-15T03:21:11;5.03;;;2.60;;
34134;SDS011;20410;55.578;12.968;2024-01-15T03:23:36;5.77;;;2.50;;
34134;SDS011;20410;55.578;12.968;2024-01-15T03:26:02;4.77;;;2.33;;
34134;SDS011;20410;55.578;12.968;2024-01-15T03:28:27;5.57;;;2.67;;
34134;SDS011;20410;55.578;12.968;2024-01-15T03:30:55;4.60;;;2.53;;
34134;SDS011;20410;55.578;12.968;2024-01-15T03:33:20;4.03;;;2.37;;
34134;SDS011;20410;55.578;12.968;2024-01-15T03:35:46;3.80;;;2.13;;
34134;SDS011;20410;55.578;12.968;2024-01-15T03:38:11;4.17;;;2.53;;
34134;SDS011;20410;55.578;12.968;2024-01-15T03:40:37;5.23;;;2.60;;
34134;SDS011;20410;55.578;12.968;2024-01-15T03:43:03;4.03;;;2.40;;
34134;SDS011;20410;55.578;12.968;2024-01-15T03:45:28;4.83;;;2.87;;
34134;SDS011;20410;55.578;12.968;2024-01-15T03:47:54;5.83;;;3.00;;
34134;SDS011;20410;55.578;12.968;2024-01-15T03:50:19;3.47;;;2.13;;
34134;SDS011;20410;55.578;12.968;2024-01-15T03:52:45;3.87;;;2.50;;
34134;SDS011;20410;55.578;12.968;2024-01-15T03:55:10;3.93;;;2.50;;
34134;SDS011;20410;55.578;12.968;2024-01-15T03:57:36;4.73;;;1.90;;
34134;SDS011;20410;55.578;12.968;2024-01-15T04:00:02;3.13;;;2.17;;
34134;SDS011;20410;55.578;12.968;2024-01-15T04:02:28;2.13;;;1.63;;
34134;SDS011;20410;55.578;12.968;2024-01-15T04:04:54;4.33;;;2.27;;
34134;SDS011;20410;55.578;12.968;2024-01-15T04:07:19;2.93;;;1.80;;
34134;SDS011;20410;55.578;12.968;2024-01-15T04:09:45;3.43;;;2.27;;
34134;SDS011;20410;55.578;12.968;2024-01-15T04:12:10;4.33;;;2.00;;
34134;SDS011;20410;55.578;12.968;2024-01-15T04:14:36;5.00;;;2.37;;
34134;SDS011;20410;55.578;12.968;2024-01-15T04:17:01;3.87;;;2.03;;
34134;SDS011;20410;55.578;12.968;2024-01-15T04:19:27;8.10;;;2.50;;
34134;SDS011;20410;55.578;12.968;2024-01-15T04:21:53;2.77;;;1.83;;
34134;SDS011;20410;55.578;12.968;2024-01-15T04:24:18;2.73;;;1.90;;
34134;SDS011;20410;55.578;12.968;2024-01-15T04:26:44;2.97;;;2.40;;
34134;SDS011;20410;55.578;12.968;2024-01-15T04:29:10;4.20;;;2.20;;
34134;SDS011;20410;55.578;12.968;2024-01-15T04:31:37;5.73;;;2.77;;
34134;SDS011;20410;55.578;12.968;2024-01-15T04:34:02;8.20;;;2.70;;
34134;SDS011;20410;55.578;12.968;2024-01-15T04:36:28;4.73;;;2.30;;
34134;SDS011;20410;55.578;12.968;2024-01-15T04:38:53;7.33;;;2.50;;
34134;SDS011;20410;55.578;12.968;2024-01-15T04:41:19;4.90;;;2.20;;
34134;SDS011;20410;55.578;12.968;2024-01-15T04:43:44;3.77;;;2.67;;
34134;SDS011;20410;55.578;12.968;2024-01-15T04:46:10;5.70;;;2.03;;
34134;SDS011;20410;55.578;12.968;2024-01-15T04:48:36;3.63;;;1.73;;
34134;SDS011;20410;55.578;12.968;2024-01-15T04:51:03;3.93;;;2.17;;
34134;SDS011;20410;55.578;12.968;2024-01-15T04:53:30;7.37;;;2.27;;
34134;SDS011;20410;55.578;12.968;2024-01-15T04:55:55;4.67;;;2.23;;
34134;SDS011;20410;55.578;12.968;2024-01-15T04:58:21;4.57;;;2.70;;
34134;SDS011;20410;55.578;12.968;2024-01-15T05:00:50;6.80;;;2.23;;
34134;SDS011;20410;55.578;12.968;2024-01-15T05:03:15;5.20;;;2.70;;
34134;SDS011;20410;55.578;12.968;2024-01-15T05:05:41;4.60;;;2.50;;
34134;SDS011;20410;55.578;12.968;2024-01-15T05:08:06;6.60;;;2.87;;
34134;SDS011;20410;55.578;12.968;2024-01-15T05:10:32;3.70;;;2.57;;
34134;SDS011;20410;55.578;12.968;2024-01-15T05:12:57;3.80;;;2.17;;
34134;SDS011;20410;55.578;12.968;2024-01-15T05:15:23;7.43;;;2.77;;
34134;SDS011;20410;55.578;12.968;2024-01-15T05:17:48;4.83;;;2.50;;
34134;SDS011;20410;55.578;12.968;2024-01-15T05:20:14;7.77;;;2.90;;
34134;SDS011;20410;55.578;12.968;2024-01-15T05:22:39;2.70;;;2.23;;
34134;SDS011;20410;55.578;12.968;2024-01-15T05:25:05;4.87;;;2.23;;
34134;SDS011;20410;55.578;12.968;2024-01-15T05:27:31;3.93;;;2.93;;
34134;SDS011;20410;55.578;12.968;2024-01-15T05:29:56;3.67;;;2.37;;
34134;SDS011;20410;55.578;12.968;2024-01-15T05:32:23;4.60;;;2.50;;
34134;SDS011;20410;55.578;12.968;2024-01-15T05:34:49;4.83;;;2.40;;
34134;SDS011;20410;55.578;12.968;2024-01-15T05:37:14;4.57;;;2.50;;
34134;SDS011;20410;55.578;12.968;2024-01-15T05:39:40;6.83;;;2.20;;
34134;SDS011;20410;55.578;12.968;2024-01-15T05:42:05;6.13;;;2.20;;
34134;SDS011;20410;55.578;12.968;2024-01-15T05:44:31;8.30;;;2.47;;
34134;SDS011;20410;55.578;12.968;2024-01-15T05:46:56;7.10;;;2.80;;
34134;SDS011;20410;55.578;12.968;2024-01-15T05:49:22;8.83;;;3.03;;
34134;SDS011;20410;55.578;12.968;2024-01-15T05:51:47;5.70;;;2.53;;
34134;SDS011;20410;55.578;12.968;2024-01-15T05:54:13;3.83;;;2.40;;
34134;SDS011;20410;55.578;12.968;2024-01-15T05:56:39;6.30;;;2.30;;
34134;SDS011;20410;55.578;12.968;2024-01-15T05:59:05;6.73;;;3.03;;
34134;SDS011;20410;55.578;12.968;2024-01-15T06:01:30;7.90;;;2.70;;
34134;SDS011;20410;55.578;12.968;2024-01-15T06:03:56;8.10;;;2.57;;
34134;SDS011;20410;55.578;12.968;2024-01-15T06:06:21;6.27;;;3.00;;
34134;SDS011;20410;55.578;12.968;2024-01-15T06:08:47;5.73;;;2.83;;
34134;SDS011;20410;55.578;12.968;2024-01-15T06:11:13;5.20;;;2.53;;
34134;SDS011;20410;55.578;12.968;2024-01-15T06:13:38;6.53;;;2.13;;
34134;SDS011;20410;55.578;12.968;2024-01-15T06:16:11;8.37;;;3.00;;
34134;SDS011;20410;55.578;12.968;2024-01-15T06:18:39;7.53;;;3.30;;
34134;SDS011;20410;55.578;12.968;2024-01-15T06:21:04;8.67;;;3.00;;
34134;SDS011;20410;55.578;12.968;2024-01-15T06:23:30;6.23;;;3.07;;
34134;SDS011;20410;55.578;12.968;2024-01-15T06:25:55;5.13;;;2.33;;
34134;SDS011;20410;55.578;12.968;2024-01-15T06:28:21;3.60;;;2.57;;
34134;SDS011;20410;55.578;12.968;2024-01-15T06:30:46;5.87;;;2.43;;
34134;SDS011;20410;55.578;12.968;2024-01-15T06:33:12;3.73;;;2.30;;
34134;SDS011;20410;55.578;12.968;2024-01-15T06:35:38;5.50;;;3.13;;
34134;SDS011;20410;55.578;12.968;2024-01-15T06:38:03;5.93;;;2.90;;
34134;SDS011;20410;55.578;12.968;2024-01-15T06:40:29;6.60;;;3.03;;
34134;SDS011;20410;55.578;12.968;2024-01-15T06:42:54;5.77;;;3.20;;
34134;SDS011;20410;55.578;12.968;2024-01-15T06:45:20;5.60;;;2.40;;
34134;SDS011;20410;55.578;12.968;2024-01-15T06:47:45;5.80;;;2.80;;
34134;SDS011;20410;55.578;12.968;2024-01-15T06:50:11;5.50;;;2.70;;
34134;SDS011;20410;55.578;12.968;2024-01-15T06:52:36;4.33;;;2.53;;
34134;SDS011;20410;55.578;12.968;2024-01-15T06:55:02;4.57;;;2.90;;
34134;SDS011;20410;55.578;12.968;2024-01-15T06:57:28;6.03;;;2.77;;
34134;SDS011;20410;55.578;12.968;2024-01-15T06:59:53;6.00;;;2.70;;
34134;SDS011;20410;55.578;12.968;2024-01-15T07:02:19;5.93;;;2.40;;
34134;SDS011;20410;55.578;12.968;2024-01-15T07:04:44;7.93;;;2.70;;
34134;SDS011;20410;55.578;12.968;2024-01-15T07:07:10;5.00;;;2.63;;
34134;SDS011;20410;55.578;12.968;2024-01-15T07:09:35;7.40;;;2.67;;
34134;SDS011;20410;55.578;12.968;2024-01-15T07:12:01;8.77;;;2.77;;
34134;SDS011;20410;55.578;12.968;2024-01-15T07:14:26;8.97;;;2.83;;
34134;SDS011;20410;55.578;12.968;2024-01-15T07:16:52;8.83;;;3.20;;
34134;SDS011;20410;55.578;12.968;2024-01-15T07:19:17;8.07;;;2.83;;
34134;SDS011;20410;55.578;12.968;2024-01-15T07:21:43;9.27;;;3.07;;
34134;SDS011;20410;55.578;12.968;2024-01-15T07:24:09;10.60;;;3.10;;
34134;SDS011;20410;55.578;12.968;2024-01-15T07:26:35;8.77;;;3.17;;
34134;SDS011;20410;55.578;12.968;2024-01-15T07:29:01;11.53;;;3.67;;
34134;SDS011;20410;55.578;12.968;2024-01-15T07:31:26;7.43;;;2.73;;
34134;SDS011;20410;55.578;12.968;2024-01-15T07:33:52;4.63;;;2.77;;
34134;SDS011;20410;55.578;12.968;2024-01-15T07:36:17;5.90;;;2.77;;
34134;SDS011;20410;55.578;12.968;2024-01-15T07:38:43;9.23;;;3.07;;
34134;SDS011;20410;55.578;12.968;2024-01-15T07:41:08;10.63;;;3.80;;
34134;SDS011;20410;55.578;12.968;2024-01-15T07:43:34;5.40;;;2.20;;
34134;SDS011;20410;55.578;12.968;2024-01-15T07:45:59;9.37;;;2.97;;
34134;SDS011;20410;55.578;12.968;2024-01-15T07:48:25;4.07;;;2.40;;
34134;SDS011;20410;55.578;12.968;2024-01-15T07:50:52;9.67;;;3.30;;
34134;SDS011;20410;55.578;12.968;2024-01-15T07:53:17;6.67;;;2.83;;
34134;SDS011;20410;55.578;12.968;2024-01-15T07:55:43;5.83;;;2.37;;
34134;SDS011;20410;55.578;12.968;2024-01-15T07:58:11;7.80;;;3.00;;
34134;SDS011;20410;55.578;12.968;2024-01-15T08:00:36;7.87;;;2.97;;
34134;SDS011;20410;55.578;12.968;2024-01-15T08:03:02;7.33;;;2.37;;
34134;SDS011;20410;55.578;12.968;2024-01-15T08:05:27;5.73;;;2.63;;
34134;SDS011;20410;55.578;12.968;2024-01-15T08:07:53;6.17;;;2.90;;
34134;SDS011;20410;55.578;12.968;2024-01-15T08:10:18;3.80;;;2.20;;
34134;SDS011;20410;55.578;12.968;2024-01-15T08:12:44;8.07;;;2.17;;
34134;SDS011;20410;55.578;12.968;2024-01-15T08:15:10;8.03;;;2.23;;
34134;SDS011;20410;55.578;12.968;2024-01-15T08:17:35;5.33;;;2.53;;
34134;SDS011;20410;55.578;12.968;2024-01-15T08:20:01;7.83;;;2.70;;
34134;SDS011;20410;55.578;12.968;2024-01-15T08:22:26;5.23;;;2.03;;
34134;SDS011;20410;55.578;12.968;2024-01-15T08:24:52;5.17;;;2.40;;
34134;SDS011;20410;55.578;12.968;2024-01-15T08:27:18;4.63;;;2.13;;
34134;SDS011;20410;55.578;12.968;2024-01-15T08:29:45;4.80;;;2.57;;
34134;SDS011;20410;55.578;12.968;2024-01-15T08:32:10;4.60;;;2.50;;
34134;SDS011;20410;55.578;12.968;2024-01-15T08:34:39;5.43;;;2.30;;
34134;SDS011;20410;55.578;12.968;2024-01-15T08:37:04;4.23;;;2.00;;
34134;SDS011;20410;55.578;12.968;2024-01-15T08:39:30;5.33;;;2.87;;
34134;SDS011;20410;55.578;12.968;2024-01-15T08:41:55;4.87;;;2.67;;
34134;SDS011;20410;55.578;12.968;2024-01-15T08:44:21;4.67;;;2.70;;
34134;SDS011;20410;55.578;12.968;2024-01-15T08:46:46;6.63;;;2.60;;
34134;SDS011;20410;55.578;12.968;2024-01-15T08:49:12;8.60;;;3.57;;
34134;SDS011;20410;55.578;12.968;2024-01-15T08:51:37;7.23;;;3.07;;
34134;SDS011;20410;55.578;12.968;2024-01-15T08:54:04;5.87;;;2.20;;
34134;SDS011;20410;55.578;12.968;2024-01-15T08:56:29;5.40;;;2.60;;
34134;SDS011;20410;55.578;12.968;2024-01-15T08:58:55;3.83;;;2.33;;
34134;SDS011;20410;55.578;12.968;2024-01-15T09:01:20;9.87;;;3.00;;
34134;SDS011;20410;55.578;12.968;2024-01-15T09:03:48;7.30;;;3.13;;
34134;SDS011;20410;55.578;12.968;2024-01-15T09:06:13;7.67;;;2.70;;
34134;SDS011;20410;55.578;12.968;2024-01-15T09:08:39;7.27;;;2.80;;
34134;SDS011;20410;55.578;12.968;2024-01-15T09:11:04;5.30;;;2.50;;
34134;SDS011;20410;55.578;12.968;2024-01-15T09:13:30;6.37;;;3.07;;
34134;SDS011;20410;55.578;12.968;2024-01-15T09:15:56;6.27;;;2.40;;
34134;SDS011;20410;55.578;12.968;2024-01-15T09:18:21;6.93;;;2.77;;
34134;SDS011;20410;55.578;12.968;2024-01-15T09:20:47;5.13;;;2.47;;
34134;SDS011;20410;55.578;12.968;2024-01-15T09:23:12;5.80;;;3.00;;
34134;SDS011;20410;55.578;12.968;2024-01-15T09:25:38;8.20;;;2.60;;
34134;SDS011;20410;55.578;12.968;2024-01-15T09:28:03;6.03;;;2.20;;
34134;SDS011;20410;55.578;12.968;2024-01-15T09:30:29;4.57;;;2.83;;
34134;SDS011;20410;55.578;12.968;2024-01-15T09:32:55;7.87;;;2.53;;
34134;SDS011;20410;55.578;12.968;2024-01-15T09:35:20;3.00;;;1.90;;
34134;SDS011;20410;55.578;12.968;2024-01-15T09:37:46;6.23;;;2.20;;
34134;SDS011;20410;55.578;12.968;2024-01-15T09:40:15;2.77;;;1.97;;
34134;SDS011;20410;55.578;12.968;2024-01-15T09:42:41;2.07;;;1.90;;
34134;SDS011;20410;55.578;12.968;2024-01-15T09:45:07;2.60;;;1.23;;
34134;SDS011;20410;55.578;12.968;2024-01-15T09:47:34;3.20;;;1.57;;
34134;SDS011;20410;55.578;12.968;2024-01-15T09:50:01;3.17;;;2.20;;
34134;SDS011;20410;55.578;12.968;2024-01-15T09:52:28;1.97;;;1.50;;
34134;SDS011;20410;55.578;12.968;2024-01-15T09:54:55;1.50;;;1.40;;
34134;SDS011;20410;55.578;12.968;2024-01-15T09:57:23;2.80;;;1.80;;
34134;SDS011;20410;55.578;12.968;2024-01-15T09:59:49;3.60;;;1.60;;
34134;SDS011;20410;55.578;12.968;2024-01-15T10:02:17;4.87;;;1.70;;
34134;SDS011;20410;55.578;12.968;2024-01-15T10:04:43;1.77;;;1.60;;
34134;SDS011;20410;55.578;12.968;2024-01-15T10:07:09;3.57;;;2.23;;
34134;SDS011;20410;55.578;12.968;2024-01-15T10:09:40;2.70;;;1.63;;
34134;SDS011;20410;55.578;12.968;2024-01-15T10:12:06;3.40;;;2.20;;
34134;SDS011;20410;55.578;12.968;2024-01-15T10:14:32;1.63;;;1.40;;
34134;SDS011;20410;55.578;12.968;2024-01-15T10:16:58;3.87;;;1.40;;
34134;SDS011;20410;55.578;12.968;2024-01-15T10:19:23;1.93;;;1.77;;
34134;SDS011;20410;55.578;12.968;2024-01-15T10:21:49;1.67;;;1.57;;
34134;SDS011;20410;55.578;12.968;2024-01-15T10:24:14;3.07;;;1.50;;
34134;SDS011;20410;55.578;12.968;2024-01-15T10:26:40;7.70;;;1.67;;
34134;SDS011;20410;55.578;12.968;2024-01-15T10:29:06;2.00;;;1.80;;
34134;SDS011;20410;55.578;12.968;2024-01-15T10:31:31;3.30;;;2.00;;
34134;SDS011;20410;55.578;12.968;2024-01-15T10:34:10;2.10;;;1.50;;
34134;SDS011;20410;55.578;12.968;2024-01-15T10:36:39;2.20;;;1.60;;
34134;SDS011;20410;55.578;12.968;2024-01-15T10:39:06;1.40;;;1.10;;
34134;SDS011;20410;55.578;12.968;2024-01-15T10:41:32;2.30;;;1.50;;
34134;SDS011;20410;55.578;12.968;2024-01-15T10:43:58;2.40;;;1.63;;
34134;SDS011;20410;55.578;12.968;2024-01-15T10:46:24;1.60;;;1.50;;
34134;SDS011;20410;55.578;12.968;2024-01-15T10:48:50;2.57;;;1.23;;
34134;SDS011;20410;55.578;12.968;2024-01-15T10:51:16;1.80;;;1.23;;
34134;SDS011;20410;55.578;12.968;2024-01-15T10:53:42;1.50;;;1.40;;
34134;SDS011;20410;55.578;12.968;2024-01-15T10:56:10;3.10;;;1.80;;
34134;SDS011;20410;55.578;12.968;2024-01-15T10:58:38;1.97;;;1.50;;
34134;SDS011;20410;55.578;12.968;2024-01-15T11:01:04;1.50;;;1.40;;
34134;SDS011;20410;55.578;12.968;2024-01-15T11:03:31;2.17;;;1.70;;
34134;SDS011;20410;55.578;12.968;2024-01-15T11:05:57;2.17;;;1.30;;
34134;SDS011;20410;55.578;12.968;2024-01-15T11:08:23;2.27;;;1.50;;
34134;SDS011;20410;55.578;12.968;2024-01-15T11:10:50;2.77;;;1.80;;
34134;SDS011;20410;55.578;12.968;2024-01-15T11:13:20;2.40;;;1.40;;
34134;SDS011;20410;55.578;12.968;2024-01-15T11:18:32;1.50;;;1.40;;
34134;SDS011;20410;55.578;12.968;2024-01-15T11:23:48;2.55;;;1.60;;
34134;SDS011;20410;55.578;12.968;2024-01-15T11:29:06;3.73;;;1.67;;
34134;SDS011;20410;55.578;12.968;2024-01-15T11:34:05;2.03;;;1.90;;
34134;SDS011;20410;55.578;12.968;2024-01-15T11:42:00;1.70;;;1.60;;
34134;SDS011;20410;55.578;12.968;2024-01-15T11:44:27;1.50;;;1.40;;
34134;SDS011;20410;55.578;12.968;2024-01-15T11:51:56;1.30;;;1.20;;
34134;SDS011;20410;55.578;12.968;2024-01-15T11:54:23;1.63;;;1.40;;
34134;SDS011;20410;55.578;12.968;2024-01-15T11:56:50;1.40;;;1.27;;
34134;SDS011;20410;55.578;12.968;2024-01-15T11:59:15;2.90;;;1.47;;
34134;SDS011;20410;55.578;12.968;2024-01-15T12:01:41;2.40;;;1.60;;
34134;SDS011;20410;55.578;12.968;2024-01-15T12:04:08;1.80;;;1.70;;
34134;SDS011;20410;55.578;12.968;2024-01-15T12:06:34;2.00;;;1.33;;
34134;SDS011;20410;55.578;12.968;2024-01-15T12:09:09;1.57;;;1.30;;
34134;SDS011;20410;55.578;12.968;2024-01-15T12:11:35;1.57;;;1.47;;
34134;SDS011;20410;55.578;12.968;2024-01-15T12:14:03;1.37;;;1.27;;
34134;SDS011;20410;55.578;12.968;2024-01-15T12:16:29;1.90;;;1.63;;
34134;SDS011;20410;55.578;12.968;2024-01-15T12:18:54;3.00;;;1.60;;
34134;SDS011;20410;55.578;12.968;2024-01-15T12:21:20;1.77;;;1.67;;
34134;SDS011;20410;55.578;12.968;2024-01-15T12:23:46;2.43;;;1.73;;
34134;SDS011;20410;55.578;12.968;2024-01-15T12:26:13;1.83;;;1.60;;
34134;SDS011;20410;55.578;12.968;2024-01-15T12:28:39;1.50;;;1.40;;
34134;SDS011;20410;55.578;12.968;2024-01-15T12:31:05;2.60;;;1.50;;
34134;SDS011;20410;55.578;12.968;2024-01-15T12:33:30;1.60;;;1.50;;
34134;SDS011;20410;55.578;12.968;2024-01-15T12:35:56;1.50;;;1.40;;
34134;SDS011;20410;55.578;12.968;2024-01-15T12:38:21;1.47;;;1.37;;
34134;SDS011;20410;55.578;12.968;2024-01-15T12:40:47;1.90;;;1.70;;
34134;SDS011;20410;55.578;12.968;2024-01-15T12:43:13;2.00;;;1.70;;
34134;SDS011;20410;55.578;12.968;2024-01-15T12:45:38;2.17;;;1.80;;
34134;SDS011;20410;55.578;12.968;2024-01-15T12:48:05;2.07;;;1.30;;
34134;SDS011;20410;55.578;12.968;2024-01-15T12:50:33;1.63;;;1.53;;
34134;SDS011;20410;55.578;12.968;2024-01-15T12:52:58;4.70;;;1.60;;
34134;SDS011;20410;55.578;12.968;2024-01-15T12:55:26;2.60;;;2.00;;
34134;SDS011;20410;55.578;12.968;2024-01-15T12:57:52;1.63;;;1.53;;
34134;SDS011;20410;55.578;12.968;2024-01-15T13:00:19;2.73;;;1.30;;
34134;SDS011;20410;55.578;12.968;2024-01-15T13:02:45;1.87;;;1.70;;
34134;SDS011;20410;55.578;12.968;2024-01-15T13:05:11;2.13;;;1.40;;
34134;SDS011;20410;55.578;12.968;2024-01-15T13:07:37;1.40;;;1.30;;
34134;SDS011;20410;55.578;12.968;2024-01-15T13:10:03;2.17;;;1.50;;
34134;SDS011;20410;55.578;12.968;2024-01-15T13:12:30;2.00;;;1.40;;
34134;SDS011;20410;55.578;12.968;2024-01-15T13:14:55;1.47;;;1.37;;
34134;SDS011;20410;55.578;12.968;2024-01-15T13:17:23;2.27;;;1.40;;
34134;SDS011;20410;55.578;12.968;2024-01-15T13:19:48;1.57;;;1.47;;
34134;SDS011;20410;55.578;12.968;2024-01-15T13:22:14;3.03;;;1.87;;
34134;SDS011;20410;55.578;12.968;2024-01-15T13:24:40;2.20;;;1.80;;
34134;SDS011;20410;55.578;12.968;2024-01-15T13:27:06;2.00;;;1.90;;
34134;SDS011;20410;55.578;12.968;2024-01-15T13:29:31;1.40;;;1.30;;
34134;SDS011;20410;55.578;12.968;2024-01-15T13:31:58;3.00;;;1.80;;
34134;SDS011;20410;55.578;12.968;2024-01-15T13:34:24;3.13;;;1.60;;
34134;SDS011;20410;55.578;12.968;2024-01-15T13:36:49;2.30;;;1.57;;
34134;SDS011;20410;55.578;12.968;2024-01-15T13:39:15;1.73;;;1.63;;
34134;SDS011;20410;55.578;12.968;2024-01-15T13:41:44;2.47;;;1.60;;
34134;SDS011;20410;55.578;12.968;2024-01-15T13:44:11;4.77;;;1.53;;
34134;SDS011;20410;55.578;12.968;2024-01-15T13:46:37;2.50;;;1.50;;
34134;SDS011;20410;55.578;12.968;2024-01-15T13:49:03;2.00;;;1.60;;
34134;SDS011;20410;55.578;12.968;2024-01-15T13:51:30;2.57;;;1.73;;
34134;SDS011;20410;55.578;12.968;2024-01-15T13:53:56;1.57;;;1.47;;
34134;SDS011;20410;55.578;12.968;2024-01-15T13:56:22;2.43;;;1.60;;
34134;SDS011;20410;55.578;12.968;2024-01-15T13:58:47;3.87;;;1.43;;
34134;SDS011;20410;55.578;12.968;2024-01-15T14:01:13;2.53;;;1.47;;
34134;SDS011;20410;55.578;12.968;2024-01-15T14:03:39;3.47;;;1.33;;
34134;SDS011;20410;55.578;12.968;2024-01-15T14:06:04;2.60;;;1.70;;
34134;SDS011;20410;55.578;12.968;2024-01-15T14:08:34;3.00;;;1.57;;
34134;SDS011;20410;55.578;12.968;2024-01-15T14:11:01;2.13;;;1.93;;
34134;SDS011;20410;55.578;12.968;2024-01-15T14:13:28;2.20;;;1.80;;
34134;SDS011;20410;55.578;12.968;2024-01-15T14:15:53;2.57;;;1.70;;
34134;SDS011;20410;55.578;12.968;2024-01-15T14:18:19;2.97;;;2.00;;
34134;SDS011;20410;55.578;12.968;2024-01-15T14:20:44;1.70;;;1.60;;
34134;SDS011;20410;55.578;12.968;2024-01-15T14:23:09;3.23;;;1.70;;
34134;SDS011;20410;55.578;12.968;2024-01-15T14:25:35;1.60;;;1.50;;
34134;SDS011;20410;55.578;12.968;2024-01-15T14:28:01;5.03;;;1.67;;
34134;SDS011;20410;55.578;12.968;2024-01-15T14:30:26;3.47;;;1.87;;
34134;SDS011;20410;55.578;12.968;2024-01-15T14:32:52;1.93;;;1.47;;
34134;SDS011;20410;55.578;12.968;2024-01-15T14:35:17;3.37;;;1.70;;
34134;SDS011;20410;55.578;12.968;2024-01-15T14:37:43;2.60;;;1.30;;
34134;SDS011;20410;55.578;12.968;2024-01-15T14:40:08;2.53;;;1.60;;
34134;SDS011;20410;55.578;12.968;2024-01-15T14:42:35;2.13;;;1.43;;
34134;SDS011;20410;55.578;12.968;2024-01-15T14:45:02;1.70;;;1.60;;
34134;SDS011;20410;55.578;12.968;2024-01-15T14:47:29;2.77;;;1.30;;
34134;SDS011;20410;55.578;12.968;2024-01-15T14:49:56;1.83;;;1.40;;